createdAt,value
2022-07-25T00:04:20.516Z,16.99
2022-07-25T00:09:25.893Z,17.05
2022-07-25T00:14:31.030Z,16.60
2022-07-25T00:19:34.671Z,17.13
2022-07-25T00:24:38.438Z,16.72
2022-07-25T00:29:43.551Z,16.70
2022-07-25T00:34:47.195Z,16.66
2022-07-25T00:39:51.003Z,17.26
2022-07-25T00:44:56.325Z,17.14
2022-07-25T00:50:00.101Z,17.24
2022-07-25T00:55:03.921Z,17.06
2022-07-25T01:00:13.458Z,17.15
2022-07-25T01:05:17.454Z,17.17
2022-07-25T01:10:21.449Z,17.18
2022-07-25T01:15:27.924Z,16.99
2022-07-25T01:20:34.971Z,16.95
2022-07-25T01:25:38.650Z,16.05
2022-07-25T01:30:42.653Z,16.38
2022-07-25T01:35:48.267Z,16.61
2022-07-25T01:40:51.928Z,16.80
2022-07-25T01:45:56.167Z,16.65
2022-07-25T01:51:01.257Z,16.28
2022-07-25T01:56:05.999Z,16.06
2022-07-25T02:01:13.033Z,16.13
2022-07-25T02:06:19.320Z,16.10
2022-07-25T02:11:22.964Z,16.42
2022-07-25T02:16:29.149Z,16.21
2022-07-25T02:21:34.414Z,16.19
2022-07-25T02:26:38.254Z,15.83
2022-07-25T02:31:42.011Z,15.91
2022-07-25T02:36:47.008Z,16.03
2022-07-25T02:41:50.733Z,15.67
2022-07-25T02:46:54.401Z,16.07
2022-07-25T02:51:59.396Z,15.07
2022-07-25T02:57:03.049Z,15.24
2022-07-25T03:02:06.814Z,15.67
2022-07-25T03:07:11.936Z,15.28
2022-07-25T03:12:15.545Z,15.87
2022-07-25T03:17:19.295Z,15.76
2022-07-25T03:22:24.688Z,15.73
2022-07-25T03:27:28.397Z,16.32
2022-07-25T03:32:32.125Z,16.18
2022-07-25T03:37:37.233Z,15.92
2022-07-25T03:42:41.172Z,15.54
2022-07-25T03:47:44.916Z,15.99
2022-07-25T03:52:50.113Z,16.43
2022-07-25T03:57:53.704Z,16.74
2022-07-25T04:02:57.305Z,16.94
2022-07-25T04:08:02.302Z,16.76
2022-07-25T04:13:05.955Z,16.87
2022-07-25T04:18:10.170Z,17.57
2022-07-25T04:23:21.444Z,18.10
2022-07-25T04:28:25.437Z,17.98
2022-07-25T04:33:29.898Z,17.99
2022-07-25T04:38:35.106Z,17.94
2022-07-25T04:43:39.094Z,18.83
2022-07-25T04:48:42.890Z,19.20
2022-07-25T04:53:51.616Z,20.71
2022-07-25T04:58:55.254Z,20.19
2022-07-25T05:03:58.924Z,20.16
2022-07-25T05:09:03.882Z,19.98
2022-07-25T05:14:08.042Z,20.21
2022-07-25T05:19:11.939Z,20.37
2022-07-25T05:24:16.988Z,21.10
2022-07-25T05:29:20.872Z,21.81
2022-07-25T05:34:25.241Z,23.94
2022-07-25T05:39:30.266Z,23.58
2022-07-25T05:44:34.119Z,24.57
2022-07-25T05:49:38.051Z,24.76
2022-07-25T05:54:43.074Z,23.28
2022-07-25T05:59:46.691Z,22.70
2022-07-25T06:04:50.422Z,23.07
2022-07-25T06:09:55.462Z,23.45
2022-07-25T06:14:59.324Z,23.28
2022-07-25T06:20:03.824Z,23.07
2022-07-25T06:25:10.018Z,23.09
2022-07-25T06:30:19.585Z,23.48
2022-07-25T06:35:24.269Z,23.81
2022-07-25T06:40:30.092Z,24.17
2022-07-25T06:45:33.969Z,24.19
2022-07-25T06:50:37.575Z,24.35
2022-07-25T06:55:42.564Z,25.66
2022-07-25T07:00:46.064Z,26.67
2022-07-25T07:05:49.853Z,26.01
2022-07-25T07:10:54.842Z,25.64
2022-07-25T07:15:58.453Z,23.83
2022-07-25T07:21:02.228Z,24.44
2022-07-25T07:26:07.554Z,24.82
2022-07-25T07:31:16.987Z,25.05
2022-07-25T07:36:22.622Z,25.08
2022-07-25T07:41:27.929Z,24.38
2022-07-25T07:46:32.139Z,25.30
2022-07-25T07:51:35.942Z,24.74
2022-07-25T07:56:41.991Z,25.03
2022-07-25T08:01:45.789Z,24.92
2022-07-25T08:06:49.684Z,24.31
2022-07-25T08:11:54.760Z,24.84
2022-07-25T08:16:58.826Z,24.94
2022-07-25T08:22:02.579Z,25.53
2022-07-25T08:27:07.714Z,25.27
2022-07-25T08:32:11.299Z,26.32
2022-07-25T08:37:15.024Z,25.93
2022-07-25T08:42:20.847Z,25.51
2022-07-25T08:47:24.811Z,25.07
2022-07-25T08:52:28.933Z,24.94
2022-07-25T08:57:34.821Z,24.99
2022-07-25T09:02:39.311Z,25.57
2022-07-25T09:07:43.327Z,25.23
2022-07-25T09:12:55.135Z,24.60
2022-07-25T09:18:00.757Z,25.41
2022-07-25T09:23:04.757Z,25.57
2022-07-25T09:28:15.803Z,25.07
2022-07-25T09:33:19.611Z,25.86
2022-07-25T09:38:25.026Z,26.45
2022-07-25T09:43:41.303Z,27.68
2022-07-25T09:48:46.297Z,28.10
2022-07-25T09:53:50.102Z,28.07
2022-07-25T09:58:55.174Z,27.40
2022-07-25T10:04:10.963Z,27.03
2022-07-25T10:09:15.129Z,28.22
2022-07-25T10:14:20.724Z,28.10
2022-07-25T10:19:43.758Z,28.44
2022-07-25T10:24:49.706Z,29.37
2022-07-25T10:29:55.415Z,28.19
2022-07-25T10:34:59.053Z,27.20
2022-07-25T10:40:04.075Z,28.40
2022-07-25T10:45:10.562Z,28.45
2022-07-25T10:50:25.543Z,28.23
2022-07-25T10:55:38.363Z,28.28
2022-07-25T11:00:46.082Z,28.22
2022-07-25T11:05:54.763Z,28.22
2022-07-25T11:10:58.625Z,28.47
2022-07-25T11:16:03.833Z,28.46
2022-07-25T11:21:09.156Z,29.23
2022-07-25T11:26:14.347Z,30.05
2022-07-25T11:31:20.440Z,32.13
2022-07-25T11:36:24.768Z,33.26
2022-07-25T11:41:30.211Z,34.38
2022-07-25T11:46:45.047Z,36.64
2022-07-25T11:51:48.725Z,35.87
2022-07-25T11:56:52.447Z,34.18
2022-07-25T12:01:57.664Z,35.16
2022-07-25T12:07:05.694Z,34.03
2022-07-25T12:12:10.095Z,34.63
2022-07-25T12:17:15.711Z,35.15
2022-07-25T12:22:19.388Z,36.17
2022-07-25T12:27:23.247Z,36.36
2022-07-25T12:32:28.116Z,34.72
2022-07-25T12:37:32.187Z,35.49
2022-07-25T12:42:36.008Z,35.36
2022-07-25T12:47:41.502Z,33.61
2022-07-25T12:52:46.761Z,34.85
2022-07-25T12:57:51.072Z,34.04
2022-07-25T13:02:56.985Z,34.26
2022-07-25T13:08:00.763Z,33.93
2022-07-25T13:13:04.547Z,34.26
2022-07-25T13:18:09.592Z,34.52
2022-07-25T13:23:17.475Z,34.93
2022-07-25T13:28:24.032Z,35.82
2022-07-25T13:33:30.772Z,35.27
2022-07-25T13:38:36.118Z,34.77
2022-07-25T13:43:40.326Z,35.39
2022-07-25T13:48:45.909Z,35.34
2022-07-25T13:53:50.033Z,35.03
2022-07-25T13:58:53.546Z,35.79
2022-07-25T14:03:58.890Z,35.59
2022-07-25T14:09:02.547Z,35.83
2022-07-25T14:14:06.197Z,35.73
2022-07-25T14:19:11.340Z,36.42
2022-07-25T14:24:15.089Z,37.46
2022-07-25T14:29:18.843Z,37.21
2022-07-25T14:34:23.707Z,35.31
2022-07-25T14:39:27.408Z,36.43
2022-07-25T14:44:31.320Z,36.01
2022-07-25T14:49:36.742Z,37.42
2022-07-25T14:54:41.758Z,35.83
2022-07-25T14:59:45.566Z,36.13
2022-07-25T15:04:50.672Z,36.27
2022-07-25T15:09:54.507Z,34.70
2022-07-25T15:14:58.450Z,33.89
2022-07-25T15:20:03.878Z,34.52
2022-07-25T15:30:32.275Z,34.98
2022-07-25T15:35:37.498Z,35.00
2022-07-25T15:40:41.483Z,34.75
2022-07-25T15:45:46.979Z,34.56
2022-07-25T15:50:52.628Z,34.35
2022-07-25T15:55:56.341Z,35.01
2022-07-25T16:01:01.061Z,33.78
2022-07-25T16:06:06.275Z,32.64
2022-07-25T16:11:10.014Z,30.92
2022-07-25T16:16:13.969Z,29.70
2022-07-25T16:21:19.573Z,29.27
2022-07-25T16:26:23.522Z,28.47
2022-07-25T16:31:27.426Z,27.89
2022-07-25T16:36:32.632Z,27.78
2022-07-25T16:43:52.102Z,27.71
2022-07-25T16:48:55.884Z,27.59
2022-07-25T16:53:59.661Z,27.82
2022-07-25T16:59:05.455Z,27.61
2022-07-25T17:04:09.862Z,27.12
2022-07-25T17:09:13.793Z,26.96
2022-07-25T17:14:18.907Z,26.91
2022-07-25T17:19:22.417Z,26.68
2022-07-25T17:24:26.104Z,26.43
2022-07-25T17:29:31.328Z,27.14
2022-07-25T17:34:35.569Z,27.30
2022-07-25T17:39:39.337Z,27.47
2022-07-25T17:44:44.477Z,26.59
2022-07-25T17:49:47.970Z,26.66
2022-07-25T17:54:51.907Z,26.16
2022-07-25T17:59:57.573Z,25.99
2022-07-25T18:05:01.456Z,26.05
2022-07-25T18:10:05.915Z,25.69
2022-07-25T18:15:12.755Z,26.40
2022-07-25T18:20:17.674Z,25.74
2022-07-25T18:25:22.553Z,25.80
2022-07-25T18:30:29.384Z,25.84
2022-07-25T18:35:33.101Z,25.43
2022-07-25T18:40:36.776Z,25.63
2022-07-25T18:45:42.267Z,25.72
2022-07-25T18:50:46.610Z,25.67
2022-07-25T18:55:50.317Z,25.36
2022-07-25T19:00:55.985Z,25.20
2022-07-25T19:06:03.201Z,24.82
2022-07-25T19:11:08.585Z,24.74
2022-07-25T19:16:13.760Z,24.91
2022-07-25T19:21:18.770Z,24.52
2022-07-25T19:26:22.682Z,24.67
2022-07-25T19:31:27.805Z,24.24
2022-07-25T19:36:31.672Z,23.83
2022-07-25T19:41:35.586Z,23.92
2022-07-25T19:46:41.054Z,23.30
2022-07-25T19:51:44.847Z,23.50
2022-07-25T19:56:48.676Z,23.29
2022-07-25T20:01:55.462Z,23.19
2022-07-25T20:07:01.134Z,22.44
2022-07-25T20:12:05.563Z,22.35
2022-07-25T20:17:11.703Z,22.60
2022-07-25T20:22:15.440Z,22.29
2022-07-25T20:27:19.359Z,22.38
2022-07-25T20:32:24.880Z,22.44
2022-07-25T20:37:28.687Z,22.77
2022-07-25T20:42:33.026Z,22.83
2022-07-25T20:47:38.145Z,22.71
2022-07-25T20:52:42.133Z,22.40
2022-07-25T20:57:50.454Z,21.75
2022-07-25T21:02:56.397Z,21.94
2022-07-25T21:08:00.786Z,22.18
2022-07-25T21:13:05.815Z,21.94
2022-07-25T21:18:11.254Z,21.65
2022-07-25T21:23:15.964Z,20.83
2022-07-25T21:28:19.578Z,20.55
2022-07-25T21:33:24.866Z,20.77
2022-07-25T21:38:31.251Z,20.64
2022-07-25T21:43:37.283Z,19.96
2022-07-25T21:49:00.133Z,19.89
2022-07-25T21:54:03.897Z,19.68
2022-07-25T21:59:07.737Z,20.57
2022-07-25T22:04:13.099Z,20.63
2022-07-25T22:09:17.045Z,20.57
2022-07-25T22:14:20.986Z,20.83
2022-07-25T22:19:26.150Z,20.79
2022-07-25T22:24:29.793Z,20.67
2022-07-25T22:29:33.683Z,20.72
2022-07-25T22:34:38.733Z,19.65
2022-07-25T22:39:42.338Z,19.37
2022-07-25T22:44:46.109Z,19.80
2022-07-25T22:49:51.150Z,19.79
2022-07-25T22:54:54.823Z,19.88
2022-07-25T22:59:58.729Z,20.36
2022-07-25T23:05:04.022Z,20.18
2022-07-25T23:10:09.176Z,19.82
2022-07-25T23:15:12.830Z,19.82
2022-07-25T23:20:17.836Z,20.01
2022-07-25T23:25:21.516Z,19.75
2022-07-25T23:30:25.289Z,19.79
2022-07-25T23:35:30.381Z,20.01
2022-07-25T23:40:34.264Z,19.86
2022-07-25T23:45:38.039Z,20.13
2022-07-25T23:50:43.769Z,20.70
2022-07-25T23:55:47.427Z,20.20
